createdAt,value
2019-02-08T00:00:03.646Z,"    0"
2019-02-08T00:05:00.974Z,"    0"
2019-02-08T00:09:57.335Z,"    0"
2019-02-08T00:14:52.670Z,"    0"
2019-02-08T00:19:48.443Z,"    0"
2019-02-08T00:24:45.232Z,"    0"
2019-02-08T00:29:41.719Z,"    0"
2019-02-08T00:34:37.245Z,"    0"
2019-02-08T00:39:32.824Z,"    0"
2019-02-08T00:44:28.410Z,"    0"
2019-02-08T00:49:24.144Z,"    0"
2019-02-08T00:54:19.721Z,"    0"
2019-02-08T00:59:16.552Z,"    0"
2019-02-08T01:04:11.848Z,"    0"
2019-02-08T01:09:07.474Z,"    0"
2019-02-08T01:14:03.983Z,"    0"
2019-02-08T01:19:00.224Z,"    0"
2019-02-08T01:23:56.036Z,"    0"
2019-02-08T01:28:51.496Z,"    0"
2019-02-08T01:33:47.077Z,"    0"
2019-02-08T01:38:42.866Z,"    0"
2019-02-08T01:43:38.560Z,"    0"
2019-02-08T01:48:35.479Z,"    0"
2019-02-08T01:53:30.781Z,"    0"
2019-02-08T01:58:26.946Z,"    0"
2019-02-08T02:03:23.710Z,"    0"
2019-02-08T02:08:19.131Z,"    0"
2019-02-08T02:13:16.133Z,"    0"
2019-02-08T02:18:12.625Z,"    0"
2019-02-08T02:23:08.113Z,"    0"
2019-02-08T02:28:04.100Z,"    0"
2019-02-08T02:32:59.768Z,"    0"
2019-02-08T02:37:55.688Z,"    0"
2019-02-08T02:42:51.473Z,"    0"
2019-02-08T02:47:48.045Z,"    0"
2019-02-08T02:52:43.382Z,"    0"
2019-02-08T02:57:39.789Z,"    0"
2019-02-08T03:02:35.560Z,"    0"
2019-02-08T03:07:31.321Z,"    0"
2019-02-08T03:12:26.863Z,"    0"
2019-02-08T03:17:22.724Z,"    0"
2019-02-08T03:22:18.500Z,"    0"
2019-02-08T03:27:15.237Z,"    0"
2019-02-08T03:32:11.837Z,"    0"
2019-02-08T03:37:07.247Z,"    0"
2019-02-08T03:42:03.944Z,"    0"
2019-02-08T03:46:59.182Z,"    0"
2019-02-08T03:51:55.031Z,"    0"
2019-02-08T03:56:50.587Z,"    0"
2019-02-08T04:01:46.137Z,"    0"
2019-02-08T04:06:41.685Z,"    0"
2019-02-08T04:11:37.549Z,"    0"
2019-02-08T04:16:33.285Z,"    0"
2019-02-08T04:21:28.721Z,"    0"
2019-02-08T04:26:24.537Z,"    0"
2019-02-08T04:31:20.256Z,"    0"
2019-02-08T04:36:16.037Z,"    0"
2019-02-08T04:41:11.912Z,"    0"
2019-02-08T04:46:08.079Z,"    0"
2019-02-08T04:51:03.879Z,"    0"
2019-02-08T04:56:00.700Z,"    0"
2019-02-08T05:00:56.220Z,"    0"
2019-02-08T05:05:52.566Z,"    0"
2019-02-08T05:10:48.221Z,"    0"
2019-02-08T05:15:44.998Z,"    0"
2019-02-08T05:20:40.334Z,"    0"
2019-02-08T05:25:35.927Z,"    0"
2019-02-08T05:30:32.161Z,"    0"
2019-02-08T05:35:28.006Z,"    0"
2019-02-08T05:40:23.846Z,"    0"
2019-02-08T05:45:20.566Z,"    0"
2019-02-08T05:50:15.990Z,"    0"
2019-02-08T05:55:11.989Z,"    0"
2019-02-08T06:00:07.771Z,"    0"
2019-02-08T06:05:03.851Z,"    0"
2019-02-08T06:10:00.669Z,"    0"
2019-02-08T06:14:56.052Z,"    0"
2019-02-08T06:19:51.670Z,"    0"
2019-02-08T06:24:47.285Z,"    0"
2019-02-08T06:29:42.803Z,"    0"
2019-02-08T06:34:41.330Z,"    4"
2019-02-08T06:39:38.036Z,"    4"
2019-02-08T06:44:33.369Z,"    8"
2019-02-08T06:49:29.006Z,"   16"
2019-02-08T06:54:24.891Z,"   32"
2019-02-08T06:59:20.584Z,"   52"
2019-02-08T07:04:16.218Z,"   80"
2019-02-08T07:09:12.299Z,"  156"
2019-02-08T07:14:08.899Z,"  252"
2019-02-08T07:19:05.194Z,"  340"
2019-02-08T07:24:01.836Z,"  336"
2019-02-08T07:28:56.954Z,"  612"
2019-02-08T07:33:52.935Z,"  428"
2019-02-08T07:38:49.636Z,"  504"
2019-02-08T07:43:45.723Z,"  488"
2019-02-08T07:48:41.375Z,"  588"
2019-02-08T07:53:38.155Z,"  516"
2019-02-08T07:58:33.763Z,"  568"
2019-02-08T08:03:29.466Z,"  504"
2019-02-08T08:08:25.298Z,"  832"
2019-02-08T08:13:21.044Z," 1196"
2019-02-08T08:18:17.581Z," 1088"
2019-02-08T08:23:13.420Z," 1092"
2019-02-08T08:28:09.192Z," 1172"
2019-02-08T08:33:05.179Z," 1604"
2019-02-08T08:38:02.106Z," 1808"
2019-02-08T08:42:58.242Z," 1552"
2019-02-08T08:47:54.293Z," 1120"
2019-02-08T08:52:50.957Z," 2040"
2019-02-08T08:57:46.437Z," 2648"
2019-02-08T09:02:41.924Z," 2892"
2019-02-08T09:07:38.167Z," 2844"
2019-02-08T09:12:34.962Z," 2268"
2019-02-08T09:17:30.697Z," 2408"
2019-02-08T09:22:27.260Z," 2548"
2019-02-08T09:27:23.043Z," 2484"
2019-02-08T09:32:20.111Z," 2016"
2019-02-08T09:37:16.795Z," 2152"
2019-02-08T09:42:12.576Z," 2468"
2019-02-08T09:47:09.444Z," 2200"
2019-02-08T09:52:04.984Z," 2300"
2019-02-08T09:57:00.852Z," 2476"
2019-02-08T10:01:57.119Z," 2924"
2019-02-08T10:06:53.026Z," 3760"
2019-02-08T10:11:49.061Z," 3124"
2019-02-08T10:16:44.789Z," 2964"
2019-02-08T10:21:40.697Z," 3116"
2019-02-08T10:26:36.451Z," 2568"
2019-02-08T10:31:33.642Z," 2332"
2019-02-08T10:36:29.131Z," 2228"
2019-02-08T10:41:30.463Z," 2668"
2019-02-08T10:46:24.921Z," 3084"
2019-02-08T10:51:20.767Z," 2704"
2019-02-08T10:56:16.449Z," 2220"
2019-02-08T11:01:12.260Z," 2948"
2019-02-08T11:06:08.026Z," 2368"
2019-02-08T11:11:03.651Z," 2172"
2019-02-08T11:16:00.041Z," 3196"
2019-02-08T11:20:55.446Z," 3824"
2019-02-08T11:25:51.659Z," 4164"
2019-02-08T11:30:47.593Z," 5232"
2019-02-08T11:35:44.122Z," 5384"
2019-02-08T11:40:41.965Z," 4192"
2019-02-08T11:45:38.559Z," 3300"
2019-02-08T11:50:33.831Z," 2492"
2019-02-08T11:55:29.592Z," 2868"
2019-02-08T12:00:25.152Z," 3864"
2019-02-08T12:05:21.256Z," 3984"
2019-02-08T12:10:17.065Z," 4156"
2019-02-08T12:15:12.969Z," 3904"
2019-02-08T12:20:09.743Z," 4176"
2019-02-08T12:25:06.145Z," 2908"
2019-02-08T12:30:01.783Z," 3828"
2019-02-08T12:34:57.652Z," 4604"
2019-02-08T12:39:53.622Z," 4324"
2019-02-08T12:44:50.115Z," 6216"
2019-02-08T12:49:46.120Z," 3600"
2019-02-08T12:54:42.573Z," 4060"
2019-02-08T12:59:38.865Z," 3868"
2019-02-08T13:04:34.756Z," 3328"
2019-02-08T13:09:30.618Z," 3008"
2019-02-08T13:14:27.208Z," 2868"
2019-02-08T13:19:22.902Z," 2836"
2019-02-08T13:24:18.525Z," 2572"
2019-02-08T13:29:14.402Z," 2428"
2019-02-08T13:34:10.316Z," 2168"
2019-02-08T13:39:05.831Z," 2044"
2019-02-08T13:44:02.076Z," 1572"
2019-02-08T13:48:57.892Z," 1472"
2019-02-08T13:53:53.574Z," 1524"
2019-02-08T13:58:49.319Z," 2948"
2019-02-08T14:03:45.564Z," 3960"
2019-02-08T14:08:41.735Z," 3688"
2019-02-08T14:13:40.790Z," 3012"
2019-02-08T14:18:36.740Z," 3180"
2019-02-08T14:23:32.240Z," 1944"
2019-02-08T14:28:28.066Z," 1812"
2019-02-08T14:33:23.802Z," 1684"
2019-02-08T14:38:20.516Z," 1128"
2019-02-08T14:43:15.857Z," 1560"
2019-02-08T14:48:11.804Z," 1232"
2019-02-08T14:53:07.838Z," 1284"
2019-02-08T14:58:04.305Z,"  904"
2019-02-08T15:02:59.784Z,"  672"
2019-02-08T15:07:57.737Z,"  744"
2019-02-08T15:12:53.080Z,"  676"
2019-02-08T15:17:49.729Z,"  516"
2019-02-08T15:22:45.053Z,"  492"
2019-02-08T15:27:40.314Z,"  420"
2019-02-08T15:32:36.301Z,"  444"
2019-02-08T15:37:32.129Z,"  316"
2019-02-08T15:42:28.720Z,"  248"
2019-02-08T15:47:24.376Z,"  276"
2019-02-08T15:52:20.289Z,"  324"
2019-02-08T15:57:16.259Z,"  252"
2019-02-08T16:02:11.684Z,"  180"
2019-02-08T16:07:07.806Z,"  136"
2019-02-08T16:12:03.573Z,"   96"
2019-02-08T16:17:00.382Z,"   60"
2019-02-08T16:21:55.712Z,"   44"
2019-02-08T16:26:51.605Z,"   28"
2019-02-08T16:31:47.752Z,"   20"
2019-02-08T16:36:43.515Z,"    8"
2019-02-08T16:41:39.166Z,"    8"
2019-02-08T16:46:35.772Z,"    4"
2019-02-08T16:51:31.586Z,"    0"
2019-02-08T16:56:27.374Z,"    0"
2019-02-08T17:01:23.834Z,"    0"
2019-02-08T17:06:19.692Z,"    0"
2019-02-08T17:11:16.341Z,"    0"
2019-02-08T17:16:13.113Z,"    0"
2019-02-08T17:21:08.480Z,"    0"
2019-02-08T17:26:05.843Z,"    0"
2019-02-08T17:31:01.651Z,"    0"
2019-02-08T17:35:58.287Z,"    0"
2019-02-08T17:40:53.898Z,"    0"
2019-02-08T17:45:51.003Z,"    0"
2019-02-08T17:50:46.509Z,"    0"
2019-02-08T17:55:42.289Z,"    0"
2019-02-08T18:00:39.265Z,"    0"
2019-02-08T18:05:34.782Z,"    0"
2019-02-08T18:10:30.447Z,"    0"
2019-02-08T18:15:26.067Z,"    0"
2019-02-08T18:20:22.238Z,"    0"
2019-02-08T18:25:19.176Z,"    0"
2019-02-08T18:30:14.746Z,"    0"
2019-02-08T18:35:10.640Z,"    0"
2019-02-08T18:40:08.183Z,"    0"
2019-02-08T18:45:04.818Z,"    0"
2019-02-08T18:50:01.165Z,"    0"
2019-02-08T18:54:57.519Z,"    0"
2019-02-08T18:59:53.042Z,"    0"
2019-02-08T19:04:48.660Z,"    0"
2019-02-08T19:09:44.344Z,"    0"
2019-02-08T19:14:40.860Z,"    0"
2019-02-08T19:19:37.571Z,"    0"
2019-02-08T19:24:33.074Z,"    0"
2019-02-08T19:29:28.818Z,"    0"
2019-02-08T19:34:24.625Z,"    0"
2019-02-08T19:39:21.740Z,"    0"
2019-02-08T19:44:17.112Z,"    0"
2019-02-08T19:49:13.859Z,"    0"
2019-02-08T19:54:09.211Z,"    0"
2019-02-08T19:59:05.868Z,"    0"
2019-02-08T20:04:01.721Z,"    0"
2019-02-08T20:08:58.980Z,"    0"
2019-02-08T20:13:55.547Z,"    0"
2019-02-08T20:18:51.058Z,"    0"
2019-02-08T20:23:47.979Z,"    0"
2019-02-08T20:28:43.562Z,"    0"
2019-02-08T20:33:39.434Z,"    0"
2019-02-08T20:38:36.285Z,"    0"
2019-02-08T20:43:31.673Z,"    0"
2019-02-08T20:48:28.096Z,"    0"
2019-02-08T20:53:24.044Z,"    0"
2019-02-08T20:58:20.754Z,"    0"
2019-02-08T21:03:16.180Z,"    0"
2019-02-08T21:08:11.954Z,"    0"
2019-02-08T21:13:07.647Z,"    0"
2019-02-08T21:18:04.308Z,"    0"
2019-02-08T21:22:59.969Z,"    0"
2019-02-08T21:27:55.771Z,"    0"
2019-02-08T21:32:51.658Z,"    0"
2019-02-08T21:37:47.212Z,"    0"
2019-02-08T21:42:43.971Z,"    0"
2019-02-08T21:47:39.698Z,"    0"
2019-02-08T21:52:34.990Z,"    0"
2019-02-08T21:57:31.899Z,"    0"
2019-02-08T22:02:27.208Z,"    0"
2019-02-08T22:07:22.977Z,"    0"
2019-02-08T22:12:18.821Z,"    0"
2019-02-08T22:17:15.609Z,"    0"
2019-02-08T22:22:11.866Z,"    0"
2019-02-08T22:27:07.582Z,"    0"
2019-02-08T22:32:02.920Z,"    0"
2019-02-08T22:36:58.568Z,"    0"
2019-02-08T22:41:54.223Z,"    0"
2019-02-08T22:46:49.951Z,"    0"
2019-02-08T22:51:45.615Z,"    0"
2019-02-08T22:56:41.553Z,"    0"
2019-02-08T23:01:37.183Z,"    0"
2019-02-08T23:06:32.946Z,"    0"
2019-02-08T23:11:28.462Z,"    0"
2019-02-08T23:16:24.101Z,"    0"
2019-02-08T23:21:19.483Z,"    0"
2019-02-08T23:26:14.986Z,"    0"
2019-02-08T23:31:11.324Z,"    0"
2019-02-08T23:36:07.147Z,"    0"
2019-02-08T23:41:02.929Z,"    0"
2019-02-08T23:45:58.518Z,"    0"
2019-02-08T23:50:54.110Z,"    0"
2019-02-08T23:55:49.753Z,"    0"
